createdAt,value
2022-09-18T00:01:32.883Z,3.78
2022-09-18T00:04:03.702Z,3.80
2022-09-18T00:06:35.222Z,4.20
2022-09-18T00:09:05.836Z,4.03
2022-09-18T00:11:43.641Z,4.22
2022-09-18T00:14:15.581Z,4.28
2022-09-18T00:16:43.094Z,3.97
2022-09-18T00:19:11.108Z,4.43
2022-09-18T00:21:46.228Z,3.80
2022-09-18T00:24:13.639Z,4.20
2022-09-18T00:26:41.020Z,4.75
2022-09-18T00:29:08.021Z,4.57
2022-09-18T00:31:36.354Z,4.15
2022-09-18T00:34:08.566Z,4.47
2022-09-18T00:36:37.146Z,4.18
2022-09-18T00:39:05.313Z,4.18
2022-09-18T00:41:36.960Z,4.70
2022-09-18T00:44:33.160Z,4.80
2022-09-18T00:47:12.222Z,4.65
2022-09-18T00:50:00.962Z,4.50
2022-09-18T00:52:46.804Z,4.60
2022-09-18T00:55:15.056Z,4.53
2022-09-18T00:57:51.917Z,5.50
2022-09-18T01:00:18.957Z,4.72
2022-09-18T01:02:48.278Z,4.50
2022-09-18T01:05:27.362Z,4.15
2022-09-18T01:08:30.471Z,4.32
2022-09-18T01:11:39.355Z,4.20
2022-09-18T01:14:27.644Z,4.50
2022-09-18T01:17:27.753Z,5.03
2022-09-18T01:20:06.294Z,4.20
2022-09-18T01:23:08.274Z,4.07
2022-09-18T01:25:50.903Z,3.63
2022-09-18T01:28:47.340Z,4.03
2022-09-18T01:31:23.973Z,4.22
2022-09-18T01:33:59.020Z,4.50
2022-09-18T01:36:30.363Z,4.57
2022-09-18T01:39:10.975Z,4.95
2022-09-18T01:41:40.509Z,5.00
2022-09-18T01:44:13.868Z,4.35
2022-09-18T01:46:44.524Z,4.10
2022-09-18T01:49:17.489Z,3.95
2022-09-18T01:51:58.482Z,4.72
2022-09-18T01:54:30.380Z,5.03
2022-09-18T01:57:25.448Z,4.38
2022-09-18T02:00:06.620Z,4.60
2022-09-18T02:03:09.632Z,4.90
2022-09-18T02:05:46.630Z,4.65
2022-09-18T02:08:53.364Z,4.32
2022-09-18T02:11:23.377Z,4.30
2022-09-18T02:13:54.322Z,4.40
2022-09-18T02:16:46.534Z,4.43
2022-09-18T02:19:27.858Z,4.45
2022-09-18T02:21:58.394Z,5.07
2022-09-18T02:24:33.391Z,5.18
2022-09-18T02:27:01.701Z,5.15
2022-09-18T02:29:29.468Z,4.82
2022-09-18T02:32:01.468Z,4.97
2022-09-18T02:34:30.227Z,6.03
2022-09-18T02:37:34.186Z,5.65
2022-09-18T02:40:21.767Z,5.30
2022-09-18T02:43:20.386Z,4.75
2022-09-18T02:46:02.320Z,5.43
2022-09-18T02:49:07.665Z,4.80
2022-09-18T02:51:52.920Z,5.43
2022-09-18T02:54:30.112Z,5.32
2022-09-18T02:57:07.294Z,6.07
2022-09-18T02:59:41.709Z,6.15
2022-09-18T03:02:12.413Z,6.53
2022-09-18T03:04:40.897Z,6.38
2022-09-18T03:07:14.564Z,6.68
2022-09-18T03:09:43.415Z,16.38
2022-09-18T03:12:11.373Z,14.07
2022-09-18T03:14:41.221Z,7.68
2022-09-18T03:17:09.675Z,9.85
2022-09-18T03:19:36.723Z,12.05
2022-09-18T03:22:03.744Z,35.58
2022-09-18T03:24:34.300Z,33.90
2022-09-18T03:27:07.631Z,10.32
2022-09-18T03:29:35.939Z,8.23
2022-09-18T03:32:03.589Z,9.30
2022-09-18T03:34:39.458Z,6.18
2022-09-18T03:37:06.452Z,4.88
2022-09-18T03:39:33.905Z,4.82
2022-09-18T03:42:01.310Z,4.90
2022-09-18T03:44:30.990Z,5.10
2022-09-18T03:47:00.429Z,4.80
2022-09-18T03:49:27.340Z,5.05
2022-09-18T03:51:54.891Z,4.78
2022-09-18T03:54:22.169Z,5.40
2022-09-18T03:57:08.251Z,5.03
2022-09-18T04:00:11.668Z,5.22
2022-09-18T04:02:47.170Z,5.97
2022-09-18T04:05:32.960Z,5.10
2022-09-18T04:08:35.902Z,3.78
2022-09-18T04:11:17.114Z,4.55
2022-09-18T04:13:44.034Z,4.60
2022-09-18T04:16:13.311Z,6.05
2022-09-18T04:18:40.747Z,5.30
2022-09-18T04:21:09.135Z,5.70
2022-09-18T04:23:36.151Z,5.78
2022-09-18T04:26:09.011Z,8.63
2022-09-18T04:28:39.878Z,6.43
2022-09-18T04:31:10.453Z,7.43
2022-09-18T04:33:37.468Z,10.05
2022-09-18T04:36:07.378Z,8.68
2022-09-18T04:38:35.566Z,6.75
2022-09-18T04:41:02.622Z,8.15
2022-09-18T04:43:30.500Z,9.05
2022-09-18T04:45:58.865Z,7.35
2022-09-18T04:48:25.929Z,7.82
2022-09-18T04:50:53.853Z,7.43
2022-09-18T04:53:22.267Z,6.57
2022-09-18T04:55:49.277Z,5.07
2022-09-18T04:58:18.897Z,4.95
2022-09-18T05:00:51.035Z,4.70
2022-09-18T05:03:19.505Z,4.40
2022-09-18T05:05:49.135Z,4.72
2022-09-18T05:08:17.415Z,5.32
2022-09-18T05:10:44.747Z,6.65
2022-09-18T05:13:12.323Z,6.60
2022-09-18T05:15:45.937Z,5.32
2022-09-18T05:18:13.712Z,4.38
2022-09-18T05:20:40.725Z,4.70
2022-09-18T05:23:09.089Z,5.38
2022-09-18T05:25:37.071Z,5.85
2022-09-18T05:28:05.164Z,4.55
2022-09-18T05:30:39.180Z,5.05
2022-09-18T05:33:09.171Z,5.25
2022-09-18T05:35:40.072Z,5.18
2022-09-18T05:38:07.548Z,6.03
2022-09-18T05:40:37.254Z,5.50
2022-09-18T05:43:05.795Z,4.80
2022-09-18T05:45:34.688Z,5.57
2022-09-18T05:48:14.645Z,4.25
2022-09-18T05:50:43.306Z,4.97
2022-09-18T05:53:16.339Z,4.57
2022-09-18T05:56:03.565Z,4.80
2022-09-18T05:58:31.551Z,5.05
2022-09-18T06:01:01.367Z,4.40
2022-09-18T06:03:42.571Z,4.75
2022-09-18T06:06:09.621Z,5.10
2022-09-18T06:08:36.752Z,3.83
2022-09-18T06:11:04.185Z,4.68
2022-09-18T06:13:32.445Z,4.13
2022-09-18T06:15:59.897Z,3.72
2022-09-18T06:18:49.511Z,3.25
2022-09-18T06:21:16.486Z,3.10
2022-09-18T06:23:44.678Z,3.13
2022-09-18T06:26:23.823Z,2.60
2022-09-18T06:28:51.569Z,2.90
2022-09-18T06:31:18.744Z,3.00
2022-09-18T06:34:05.993Z,2.47
2022-09-18T06:36:32.996Z,2.47
2022-09-18T06:39:18.462Z,5.22
2022-09-18T06:41:49.688Z,4.40
2022-09-18T06:44:39.306Z,3.33
2022-09-18T06:47:07.544Z,2.90
2022-09-18T06:49:39.915Z,3.00
2022-09-18T06:52:06.863Z,2.70
2022-09-18T06:54:36.149Z,3.28
2022-09-18T06:57:03.104Z,3.63
2022-09-18T06:59:31.601Z,2.90
2022-09-18T07:02:00.053Z,3.58
2022-09-18T07:04:43.120Z,3.42
2022-09-18T07:07:10.482Z,4.28
2022-09-18T07:09:37.427Z,3.15
2022-09-18T07:12:30.496Z,2.55
2022-09-18T07:14:57.791Z,2.70
2022-09-18T07:17:26.854Z,2.80
2022-09-18T07:19:56.368Z,2.83
2022-09-18T07:22:31.606Z,2.70
2022-09-18T07:24:58.545Z,2.70
2022-09-18T07:27:25.472Z,2.97
2022-09-18T07:29:53.604Z,2.50
2022-09-18T07:32:21.848Z,3.00
2022-09-18T07:34:49.372Z,2.70
2022-09-18T07:37:23.683Z,2.92
2022-09-18T07:40:01.875Z,2.78
2022-09-18T07:42:51.807Z,3.25
2022-09-18T07:45:18.879Z,3.10
2022-09-18T07:47:45.945Z,2.88
2022-09-18T07:50:16.121Z,2.70
2022-09-18T07:52:58.348Z,2.80
2022-09-18T07:55:30.594Z,2.65
2022-09-18T07:58:02.216Z,2.67
2022-09-18T08:00:46.141Z,2.90
2022-09-18T08:03:15.314Z,4.10
2022-09-18T08:06:00.483Z,2.92
2022-09-18T08:08:27.628Z,3.08
2022-09-18T08:11:03.253Z,3.90
2022-09-18T08:13:54.719Z,3.00
2022-09-18T08:16:32.986Z,3.20
2022-09-18T08:19:08.964Z,2.33
2022-09-18T08:21:52.973Z,2.22
2022-09-18T08:24:21.961Z,3.17
2022-09-18T08:26:50.119Z,9.15
2022-09-18T08:29:19.610Z,7.35
2022-09-18T08:31:56.946Z,5.38
2022-09-18T08:34:24.152Z,3.90
2022-09-18T08:36:51.068Z,2.33
2022-09-18T08:39:24.882Z,3.00
2022-09-18T08:42:55.764Z,2.83
2022-09-18T08:45:52.883Z,2.65
2022-09-18T08:48:32.503Z,2.58
2022-09-18T08:51:28.439Z,3.45
2022-09-18T08:54:30.249Z,2.60
2022-09-18T08:57:22.957Z,2.33
2022-09-18T09:00:34.843Z,2.25
2022-09-18T09:03:44.895Z,1.83
2022-09-18T09:06:44.660Z,2.08
2022-09-18T09:10:11.111Z,2.17
2022-09-18T09:13:17.896Z,1.73
2022-09-18T09:16:15.049Z,2.10
2022-09-18T09:18:57.766Z,2.00
2022-09-18T09:22:16.776Z,2.80
2022-09-18T09:25:24.588Z,2.30
2022-09-18T09:28:22.070Z,1.90
2022-09-18T09:31:09.863Z,1.92
2022-09-18T09:34:08.049Z,1.85
2022-09-18T09:37:17.137Z,2.20
2022-09-18T09:39:52.400Z,2.40
2022-09-18T09:42:32.125Z,2.03
2022-09-18T09:45:29.344Z,2.38
2022-09-18T09:48:03.410Z,2.05
2022-09-18T09:50:36.915Z,3.47
2022-09-18T09:53:10.657Z,1.83
2022-09-18T09:56:03.596Z,2.10
2022-09-18T09:58:59.814Z,2.50
2022-09-18T10:01:46.209Z,2.83
2022-09-18T10:04:29.352Z,2.00
2022-09-18T10:07:42.209Z,2.38
2022-09-18T10:10:32.354Z,1.85
2022-09-18T10:13:25.626Z,1.85
2022-09-18T10:16:22.269Z,1.80
2022-09-18T10:18:50.612Z,2.03
2022-09-18T10:21:22.411Z,1.70
2022-09-18T10:24:15.131Z,1.90
2022-09-18T10:26:54.667Z,1.88
2022-09-18T10:29:22.024Z,1.60
2022-09-18T10:31:58.281Z,1.67
2022-09-18T10:34:53.801Z,1.88
2022-09-18T10:37:28.565Z,1.80
2022-09-18T10:40:01.562Z,1.90
2022-09-18T10:42:35.543Z,2.00
2022-09-18T10:45:26.671Z,2.15
2022-09-18T10:48:16.609Z,2.67
2022-09-18T10:51:01.419Z,2.13
2022-09-18T10:53:42.601Z,1.77
2022-09-18T10:56:22.948Z,1.90
2022-09-18T10:58:53.703Z,2.25
2022-09-18T11:01:24.202Z,1.90
2022-09-18T11:04:03.164Z,1.85
2022-09-18T11:06:37.497Z,1.98
2022-09-18T11:09:38.662Z,2.13
2022-09-18T11:12:23.550Z,2.25
2022-09-18T11:15:23.623Z,2.65
2022-09-18T11:17:56.950Z,2.08
2022-09-18T11:20:32.338Z,1.98
2022-09-18T11:23:32.343Z,1.88
2022-09-18T11:26:15.337Z,2.15
2022-09-18T11:28:43.233Z,1.83
2022-09-18T11:31:18.175Z,2.17
2022-09-18T11:33:54.866Z,1.65
2022-09-18T11:36:33.111Z,2.00
2022-09-18T11:39:13.002Z,1.92
2022-09-18T11:41:41.438Z,2.30
2022-09-18T11:44:33.252Z,2.00
2022-09-18T11:47:31.707Z,2.00
2022-09-18T11:50:19.763Z,1.70
2022-09-18T11:52:56.852Z,2.10
2022-09-18T11:55:46.505Z,1.90
2022-09-18T11:58:24.592Z,1.77
2022-09-18T12:01:05.143Z,2.20
2022-09-18T12:03:42.950Z,1.50
2022-09-18T12:06:57.971Z,1.88
2022-09-18T12:09:39.158Z,1.85
2022-09-18T12:12:49.457Z,1.83
2022-09-18T12:15:24.359Z,1.90
2022-09-18T12:18:02.940Z,1.73
2022-09-18T12:20:48.613Z,1.65
2022-09-18T12:23:24.981Z,3.03
2022-09-18T12:26:18.591Z,3.17
2022-09-18T12:29:13.878Z,2.20
2022-09-18T12:32:34.111Z,1.80
2022-09-18T12:35:33.818Z,1.80
2022-09-18T12:38:50.012Z,2.83
2022-09-18T12:41:52.376Z,3.60
2022-09-18T12:44:38.669Z,2.53
2022-09-18T12:47:25.819Z,2.17
2022-09-18T12:50:11.702Z,2.13
2022-09-18T12:53:09.460Z,2.88
2022-09-18T12:55:54.412Z,2.60
2022-09-18T12:58:43.945Z,2.30
2022-09-18T13:01:32.018Z,1.95
2022-09-18T13:04:29.447Z,1.90
2022-09-18T13:07:16.945Z,2.60
2022-09-18T13:10:10.366Z,2.75
2022-09-18T13:12:47.249Z,2.55
2022-09-18T13:15:33.327Z,2.30
2022-09-18T13:18:31.956Z,3.00
2022-09-18T13:21:03.701Z,3.20
2022-09-18T13:23:36.183Z,2.60
2022-09-18T13:26:06.534Z,2.40
2022-09-18T13:28:33.681Z,2.60
2022-09-18T13:31:33.867Z,2.58
2022-09-18T13:34:05.848Z,3.20
2022-09-18T13:36:38.689Z,3.10
2022-09-18T13:39:17.175Z,3.63
2022-09-18T13:41:49.881Z,3.17
2022-09-18T13:44:33.059Z,2.90
2022-09-18T13:47:12.707Z,2.88
2022-09-18T13:49:59.513Z,2.70
2022-09-18T13:52:35.109Z,3.28
2022-09-18T13:55:14.201Z,3.20
2022-09-18T13:57:43.160Z,3.35
2022-09-18T14:00:38.482Z,3.75
2022-09-18T14:03:08.317Z,3.42
2022-09-18T14:05:38.565Z,3.47
2022-09-18T14:08:21.342Z,2.92
2022-09-18T14:11:05.432Z,3.35
2022-09-18T14:13:39.035Z,2.65
2022-09-18T14:16:20.081Z,3.05
2022-09-18T14:18:47.116Z,2.85
2022-09-18T14:21:20.529Z,3.20
2022-09-18T14:23:47.346Z,3.10
2022-09-18T14:26:32.156Z,3.55
2022-09-18T14:29:11.126Z,3.83
2022-09-18T14:31:45.821Z,3.63
2022-09-18T14:34:44.933Z,2.78
2022-09-18T14:37:20.546Z,3.17
2022-09-18T14:39:47.502Z,2.72
2022-09-18T14:42:36.688Z,3.00
2022-09-18T14:45:13.091Z,3.95
2022-09-18T14:47:42.559Z,3.97
2022-09-18T14:50:37.729Z,3.88
2022-09-18T14:53:24.490Z,3.60
2022-09-18T14:56:05.683Z,3.50
2022-09-18T14:58:37.536Z,3.85
2022-09-18T15:01:11.477Z,4.93
2022-09-18T15:03:43.840Z,4.55
2022-09-18T15:06:25.891Z,4.25
2022-09-18T15:08:55.959Z,4.38
2022-09-18T15:11:32.074Z,4.47
2022-09-18T15:14:22.625Z,7.65
2022-09-18T15:17:01.127Z,6.38
2022-09-18T15:19:30.439Z,5.15
2022-09-18T15:22:02.495Z,4.53
2022-09-18T15:24:30.901Z,3.83
2022-09-18T15:27:01.382Z,4.40
2022-09-18T15:29:50.613Z,3.95
2022-09-18T15:32:28.539Z,4.72
2022-09-18T15:34:56.498Z,8.48
2022-09-18T15:37:25.894Z,6.07
2022-09-18T15:40:09.261Z,5.35
2022-09-18T15:42:41.286Z,5.20
2022-09-18T15:45:08.075Z,5.68
2022-09-18T15:47:38.460Z,5.45
2022-09-18T15:50:17.106Z,5.22
2022-09-18T15:52:51.928Z,4.93
2022-09-18T15:55:26.112Z,4.60
2022-09-18T15:57:57.354Z,4.78
2022-09-18T16:00:34.892Z,4.93
2022-09-18T16:03:08.822Z,5.18
2022-09-18T16:05:39.384Z,5.82
2022-09-18T16:08:18.172Z,5.30
2022-09-18T16:10:51.073Z,4.55
2022-09-18T16:13:17.877Z,4.97
2022-09-18T16:15:47.545Z,5.28
2022-09-18T16:18:30.457Z,3.55
2022-09-18T16:20:57.981Z,3.70
2022-09-18T16:23:35.967Z,3.15
2022-09-18T16:26:13.769Z,3.20
2022-09-18T16:28:46.166Z,3.10
2022-09-18T16:31:16.866Z,3.28
2022-09-18T16:33:57.299Z,3.05
2022-09-18T16:36:35.533Z,2.53
2022-09-18T16:39:07.856Z,3.13
2022-09-18T16:41:35.701Z,3.50
2022-09-18T16:44:04.448Z,3.80
2022-09-18T16:46:52.600Z,4.68
2022-09-18T16:49:23.714Z,3.90
2022-09-18T16:51:50.725Z,4.03
2022-09-18T16:54:17.596Z,4.30
2022-09-18T16:57:01.327Z,4.80
2022-09-18T16:59:31.076Z,4.10
2022-09-18T17:02:04.314Z,6.53
2022-09-18T17:04:33.213Z,4.80
2022-09-18T17:07:06.530Z,4.20
2022-09-18T17:09:36.188Z,4.57
2022-09-18T17:12:20.012Z,5.15
2022-09-18T17:14:50.961Z,5.38
2022-09-18T17:17:27.646Z,4.47
2022-09-18T17:19:55.784Z,4.47
2022-09-18T17:22:26.542Z,4.72
2022-09-18T17:24:57.289Z,3.95
2022-09-18T17:27:25.907Z,4.05
2022-09-18T17:29:59.781Z,3.20
2022-09-18T17:32:33.464Z,3.20
2022-09-18T17:35:03.535Z,3.00
2022-09-18T17:37:33.827Z,3.22
2022-09-18T17:40:08.575Z,3.70
2022-09-18T17:42:40.288Z,3.63
2022-09-18T17:47:55.359Z,3.45
2022-09-18T17:50:25.240Z,3.38
2022-09-18T17:52:53.676Z,3.03
2022-09-18T17:55:23.607Z,3.20
2022-09-18T17:57:53.238Z,2.55
2022-09-18T18:00:28.221Z,2.83
2022-09-18T18:02:56.814Z,2.50
2022-09-18T18:05:25.194Z,2.45
2022-09-18T18:07:56.861Z,2.15
2022-09-18T18:10:24.175Z,1.90
2022-09-18T18:12:51.049Z,2.10
2022-09-18T18:15:20.514Z,1.60
2022-09-18T18:17:57.151Z,1.80
2022-09-18T18:20:27.555Z,1.77
2022-09-18T18:22:58.087Z,2.28
2022-09-18T18:25:29.767Z,1.85
2022-09-18T18:27:59.315Z,2.20
2022-09-18T18:30:30.477Z,2.53
2022-09-18T18:33:17.490Z,2.28
2022-09-18T18:40:24.050Z,2.50
2022-09-18T18:43:53.098Z,2.10
2022-09-18T18:46:58.610Z,2.08
2022-09-18T18:50:22.250Z,2.38
2022-09-18T19:28:53.056Z,2.90
2022-09-18T19:31:32.788Z,3.17
2022-09-18T19:34:22.148Z,3.15
2022-09-18T19:37:08.540Z,2.70
2022-09-18T19:40:10.162Z,3.08
2022-09-18T19:47:54.889Z,3.15
2022-09-18T19:50:41.712Z,2.80
2022-09-18T19:53:45.261Z,2.42
2022-09-18T19:56:41.629Z,2.30
2022-09-18T19:59:08.832Z,2.60
2022-09-18T20:01:35.737Z,2.30
2022-09-18T20:04:02.953Z,2.72
2022-09-18T20:06:32.460Z,2.85
2022-09-18T20:09:00.438Z,2.90
2022-09-18T20:11:27.379Z,2.90
2022-09-18T20:13:54.321Z,2.58
2022-09-18T20:16:22.629Z,2.67
2022-09-18T20:18:50.088Z,2.38
2022-09-18T20:21:18.623Z,2.85
2022-09-18T20:23:46.913Z,3.10
2022-09-18T20:26:18.143Z,3.40
2022-09-18T20:28:45.450Z,3.65
2022-09-18T20:31:14.877Z,3.30
2022-09-18T20:33:42.176Z,4.85
2022-09-18T20:36:11.389Z,4.35
2022-09-18T20:38:41.382Z,4.00
2022-09-18T20:41:14.786Z,3.50
2022-09-18T20:43:44.165Z,3.22
2022-09-18T20:46:15.822Z,4.75
2022-09-18T20:48:53.011Z,3.70
2022-09-18T20:51:22.488Z,3.60
2022-09-18T20:53:49.515Z,4.78
2022-09-18T20:56:18.227Z,4.75
2022-09-18T20:58:45.120Z,4.05
2022-09-18T21:01:15.250Z,5.32
2022-09-18T21:03:43.957Z,5.88
2022-09-18T21:06:23.254Z,5.10
2022-09-18T21:08:53.775Z,5.57
2022-09-18T21:11:29.219Z,4.78
2022-09-18T21:14:00.127Z,5.85
2022-09-18T21:16:31.576Z,5.78
2022-09-18T21:19:01.881Z,4.75
2022-09-18T21:21:32.103Z,4.50
2022-09-18T21:24:02.214Z,5.00
2022-09-18T21:26:35.551Z,4.15
2022-09-18T21:29:22.660Z,4.13
2022-09-18T21:31:59.663Z,3.80
2022-09-18T21:34:31.465Z,3.80
2022-09-18T21:37:01.780Z,3.80
2022-09-18T21:39:30.445Z,4.30
2022-09-18T21:41:59.440Z,3.42
2022-09-18T21:44:28.784Z,4.35
2022-09-18T21:47:02.358Z,4.00
2022-09-18T21:49:30.160Z,3.85
2022-09-18T21:52:03.434Z,3.88
2022-09-18T21:54:31.966Z,4.18
2022-09-18T21:56:59.604Z,4.28
2022-09-18T21:59:30.625Z,3.92
2022-09-18T22:01:58.705Z,3.42
2022-09-18T22:04:29.366Z,4.13
2022-09-18T22:06:59.582Z,4.43
2022-09-18T22:09:31.193Z,4.20
2022-09-18T22:11:59.254Z,3.97
2022-09-18T22:14:31.934Z,4.20
2022-09-18T22:17:04.609Z,4.22
2022-09-18T22:19:33.371Z,4.15
2022-09-18T22:22:00.711Z,4.10
2022-09-18T22:24:28.810Z,3.65
2022-09-18T22:26:59.590Z,3.67
2022-09-18T22:29:32.667Z,4.00
2022-09-18T22:32:00.942Z,3.17
2022-09-18T22:34:30.188Z,3.45
2022-09-18T22:36:59.324Z,2.95
2022-09-18T22:39:26.836Z,3.42
2022-09-18T22:41:54.954Z,3.50
2022-09-18T22:44:22.776Z,3.20
2022-09-18T22:46:52.517Z,3.00
2022-09-18T22:49:21.783Z,3.25
2022-09-18T22:51:48.932Z,3.42
2022-09-18T22:54:16.932Z,3.00
2022-09-18T22:56:50.462Z,2.80
2022-09-18T22:59:19.843Z,2.50
2022-09-18T23:01:59.133Z,2.53
2022-09-18T23:04:29.840Z,2.22
2022-09-18T23:06:59.228Z,2.30
2022-09-18T23:09:27.380Z,2.22
2022-09-18T23:11:54.966Z,2.20
2022-09-18T23:14:28.533Z,2.20
2022-09-18T23:16:57.462Z,2.00
2022-09-18T23:19:28.926Z,2.17
2022-09-18T23:21:56.379Z,2.40
2022-09-18T23:24:24.737Z,2.47
2022-09-18T23:26:53.765Z,1.98
2022-09-18T23:29:23.504Z,2.08
2022-09-18T23:31:53.152Z,2.40
2022-09-18T23:34:23.608Z,2.50
2022-09-18T23:36:54.138Z,2.15
2022-09-18T23:39:30.950Z,1.98
2022-09-18T23:41:59.364Z,2.33
2022-09-18T23:44:31.255Z,2.17
2022-09-18T23:47:00.019Z,1.90
2022-09-18T23:49:27.364Z,2.05
2022-09-18T23:51:55.063Z,1.92
2022-09-18T23:54:29.498Z,2.38
2022-09-18T23:56:56.681Z,2.03
2022-09-18T23:59:25.452Z,2.20
